createdAt,value
2023-04-21T00:00:11.339Z,86.04
2023-04-21T00:02:41.721Z,85.43
2023-04-21T00:05:12.712Z,85.00
2023-04-21T00:07:41.857Z,85.08
2023-04-21T00:10:13.088Z,85.68
2023-04-21T00:12:41.919Z,86.60
2023-04-21T00:15:12.913Z,86.73
2023-04-21T00:17:41.849Z,86.23
2023-04-21T00:20:12.204Z,86.28
2023-04-21T00:22:40.893Z,85.96
2023-04-21T00:25:10.500Z,85.58
2023-04-21T00:27:39.233Z,85.21
2023-04-21T00:30:09.823Z,84.79
2023-04-21T00:32:40.531Z,84.42
2023-04-21T00:35:11.057Z,85.03
2023-04-21T00:37:41.727Z,84.43
2023-04-21T00:40:13.808Z,84.34
2023-04-21T00:42:42.918Z,83.85
2023-04-21T00:45:12.602Z,83.68
2023-04-21T00:47:42.909Z,83.89
2023-04-21T00:50:14.185Z,83.79
2023-04-21T00:52:47.086Z,83.87
2023-04-21T00:55:16.967Z,83.83
2023-04-21T00:57:46.314Z,83.41
2023-04-21T01:00:16.741Z,83.05
2023-04-21T01:02:47.302Z,83.01
2023-04-21T01:05:18.295Z,82.76
2023-04-21T01:07:47.220Z,82.69
2023-04-21T01:10:16.258Z,82.56
2023-04-21T01:12:49.053Z,82.16
2023-04-21T01:15:19.088Z,82.05
2023-04-21T01:17:49.986Z,82.50
2023-04-21T01:20:18.767Z,83.08
2023-04-21T01:22:51.295Z,83.62
2023-04-21T01:25:22.824Z,84.17
2023-04-21T01:27:52.176Z,83.62
2023-04-21T01:30:23.276Z,82.99
2023-04-21T01:32:53.152Z,82.71
2023-04-21T01:35:22.293Z,82.71
2023-04-21T01:37:52.358Z,83.27
2023-04-21T01:40:21.613Z,84.08
2023-04-21T01:42:50.356Z,84.51
2023-04-21T01:45:19.030Z,83.32
2023-04-21T01:47:47.806Z,83.21
2023-04-21T01:50:16.668Z,82.60
2023-04-21T01:52:45.439Z,82.42
2023-04-21T01:55:15.994Z,82.04
2023-04-21T01:57:44.711Z,81.49
2023-04-21T02:00:15.184Z,81.37
2023-04-21T02:02:44.060Z,81.27
2023-04-21T02:05:15.079Z,81.83
2023-04-21T02:07:43.862Z,82.77
2023-04-21T02:10:14.275Z,82.86
2023-04-21T02:12:45.258Z,82.51
2023-04-21T02:15:14.186Z,82.61
2023-04-21T02:17:45.028Z,82.66
2023-04-21T02:20:14.581Z,83.87
2023-04-21T02:22:43.336Z,82.91
2023-04-21T02:25:12.217Z,82.32
2023-04-21T02:27:42.700Z,82.14
2023-04-21T02:30:12.087Z,81.73
2023-04-21T02:32:41.059Z,81.90
2023-04-21T02:35:10.918Z,81.82
2023-04-21T02:37:39.803Z,81.71
2023-04-21T02:40:10.606Z,81.66
2023-04-21T02:42:39.317Z,81.36
2023-04-21T02:45:12.374Z,80.97
2023-04-21T02:47:41.157Z,81.43
2023-04-21T02:50:11.036Z,81.99
2023-04-21T02:52:39.949Z,83.04
2023-04-21T02:55:09.873Z,82.87
2023-04-21T02:57:38.670Z,81.98
2023-04-21T03:00:14.028Z,81.77
2023-04-21T03:02:43.142Z,81.50
2023-04-21T03:05:12.783Z,81.50
2023-04-21T03:07:41.388Z,82.62
2023-04-21T03:10:10.284Z,82.44
2023-04-21T03:12:39.064Z,81.94
2023-04-21T03:15:10.215Z,81.50
2023-04-21T03:17:39.820Z,81.25
2023-04-21T03:20:10.873Z,81.24
2023-04-21T03:22:40.457Z,81.09
2023-04-21T03:25:09.445Z,81.11
2023-04-21T03:27:38.396Z,80.63
2023-04-21T03:30:10.475Z,80.67
2023-04-21T03:32:39.158Z,80.57
2023-04-21T03:35:08.361Z,80.27
2023-04-21T03:37:37.086Z,80.77
2023-04-21T03:40:08.674Z,80.33
2023-04-21T03:42:37.700Z,80.10
2023-04-21T03:45:10.827Z,80.13
2023-04-21T03:47:39.669Z,80.05
2023-04-21T03:50:10.173Z,79.99
2023-04-21T03:52:39.683Z,80.39
2023-04-21T03:55:11.923Z,80.69
2023-04-21T03:57:42.208Z,80.47
2023-04-21T04:00:14.922Z,80.19
2023-04-21T04:02:43.999Z,80.38
2023-04-21T04:05:13.280Z,80.65
2023-04-21T04:07:43.009Z,80.71
2023-04-21T04:10:12.228Z,80.64
2023-04-21T04:12:41.205Z,81.05
2023-04-21T04:15:12.375Z,81.65
2023-04-21T04:17:43.484Z,81.75
2023-04-21T04:20:13.073Z,81.58
2023-04-21T04:22:41.943Z,81.51
2023-04-21T04:25:12.856Z,81.43
2023-04-21T04:27:41.751Z,81.21
2023-04-21T04:30:16.374Z,81.68
2023-04-21T04:32:45.770Z,81.68
2023-04-21T04:35:15.547Z,81.84
2023-04-21T04:37:45.637Z,82.13
2023-04-21T04:40:19.760Z,81.92
2023-04-21T04:42:49.015Z,81.80
2023-04-21T04:45:22.275Z,81.61
2023-04-21T04:47:51.635Z,81.69
2023-04-21T04:50:20.457Z,81.62
2023-04-21T04:52:58.821Z,81.63
2023-04-21T04:55:42.258Z,81.90
2023-04-21T04:58:16.233Z,81.94
2023-04-21T05:00:56.660Z,81.15
2023-04-21T05:03:32.341Z,81.00
2023-04-21T05:06:03.654Z,81.32
2023-04-21T05:09:08.560Z,81.40
2023-04-21T05:12:21.636Z,81.25
2023-04-21T05:15:07.617Z,81.34
2023-04-21T05:17:41.408Z,81.22
2023-04-21T05:20:14.997Z,81.17
2023-04-21T05:22:50.078Z,81.66
2023-04-21T05:25:23.306Z,82.25
2023-04-21T05:27:54.030Z,82.57
2023-04-21T05:30:25.872Z,82.61
2023-04-21T05:32:55.915Z,82.80
2023-04-21T05:35:24.788Z,82.78
2023-04-21T05:37:53.872Z,82.72
2023-04-21T05:40:23.304Z,83.12
2023-04-21T05:42:52.686Z,83.25
2023-04-21T05:45:22.054Z,83.42
2023-04-21T05:47:51.342Z,83.66
2023-04-21T05:50:21.891Z,83.63
2023-04-21T05:52:50.859Z,83.99
2023-04-21T05:55:19.972Z,84.13
2023-04-21T05:57:49.116Z,84.66
2023-04-21T06:00:19.501Z,85.03
2023-04-21T06:02:48.876Z,85.29
2023-04-21T06:05:17.895Z,85.67
2023-04-21T06:07:48.184Z,85.99
2023-04-21T06:10:17.251Z,86.84
2023-04-21T06:12:46.166Z,86.55
2023-04-21T06:15:14.908Z,86.78
2023-04-21T06:17:43.672Z,86.94
2023-04-21T06:20:13.784Z,87.17
2023-04-21T06:22:42.427Z,87.13
2023-04-21T06:25:12.741Z,87.53
2023-04-21T06:27:41.454Z,87.73
2023-04-21T06:30:11.110Z,88.07
2023-04-21T06:32:39.876Z,88.79
2023-04-21T06:35:09.608Z,89.21
2023-04-21T06:37:38.559Z,90.32
2023-04-21T06:40:08.799Z,90.46
2023-04-21T06:42:38.899Z,90.23
2023-04-21T06:45:10.822Z,90.77
2023-04-21T06:47:39.731Z,91.05
2023-04-21T06:50:10.139Z,91.43
2023-04-21T06:52:38.818Z,91.52
2023-04-21T06:55:09.085Z,92.00
2023-04-21T06:57:39.154Z,91.96
2023-04-21T07:00:09.763Z,92.08
2023-04-21T07:02:38.530Z,92.44
2023-04-21T07:05:08.188Z,92.93
2023-04-21T07:07:36.893Z,93.23
2023-04-21T07:10:06.264Z,93.57
2023-04-21T07:12:34.982Z,94.21
2023-04-21T07:15:05.945Z,94.74
2023-04-21T07:17:34.666Z,93.68
2023-04-21T07:20:03.814Z,93.69
2023-04-21T07:22:32.453Z,93.01
2023-04-21T07:25:02.232Z,92.06
2023-04-21T07:27:30.954Z,91.21
2023-04-21T07:30:00.029Z,90.77
2023-04-21T07:32:30.207Z,89.52
2023-04-21T07:34:58.945Z,88.50
2023-04-21T07:37:27.615Z,84.20
2023-04-21T07:39:56.280Z,83.08
2023-04-21T07:42:26.821Z,83.18
2023-04-21T07:44:56.191Z,81.69
2023-04-21T07:47:25.069Z,75.96
2023-04-21T07:49:55.228Z,71.92
2023-04-21T07:52:24.414Z,73.36
2023-04-21T07:54:53.638Z,71.75
2023-04-21T07:57:22.365Z,68.34
2023-04-21T07:59:51.320Z,66.62
2023-04-21T08:02:20.170Z,67.09
2023-04-21T08:04:49.063Z,64.95
2023-04-21T08:07:19.285Z,62.88
2023-04-21T08:09:47.962Z,63.36
2023-04-21T08:12:16.684Z,63.56
2023-04-21T08:14:45.478Z,64.58
2023-04-21T08:20:00.058Z,62.59
2023-04-21T08:22:30.161Z,60.29
2023-04-21T08:24:58.871Z,60.03
2023-04-21T08:27:27.602Z,59.84
2023-04-21T08:29:56.327Z,59.33
2023-04-21T08:32:26.545Z,58.05
2023-04-21T08:34:56.544Z,58.85
2023-04-21T08:37:25.250Z,59.30
2023-04-21T08:39:55.368Z,59.65
2023-04-21T08:42:24.055Z,59.21
2023-04-21T08:44:52.776Z,56.11
2023-04-21T08:47:25.457Z,55.87
2023-04-21T08:49:54.626Z,52.68
2023-04-21T08:52:23.390Z,52.89
2023-04-21T08:54:53.328Z,50.68
2023-04-21T08:57:23.410Z,48.26
2023-04-21T08:59:52.095Z,48.54
2023-04-21T09:02:21.122Z,45.94
2023-04-21T09:04:52.499Z,46.55
2023-04-21T09:07:36.063Z,44.54
2023-04-21T09:10:07.196Z,44.48
2023-04-21T09:12:40.876Z,46.67
2023-04-21T09:15:12.859Z,44.91
2023-04-21T09:17:41.555Z,43.36
2023-04-21T09:20:17.655Z,41.67
2023-04-21T09:22:47.233Z,42.80
2023-04-21T09:25:20.423Z,40.87
2023-04-21T09:27:50.573Z,41.29
2023-04-21T09:30:22.763Z,43.73
2023-04-21T09:32:51.662Z,39.89
2023-04-21T09:35:20.668Z,38.92
2023-04-21T09:37:49.369Z,40.92
2023-04-21T09:40:20.234Z,40.26
2023-04-21T09:42:50.755Z,40.30
2023-04-21T09:47:56.779Z,39.35
2023-04-21T09:51:03.699Z,37.31
2023-04-21T09:53:18.129Z,37.55
2023-04-21T09:55:52.915Z,36.72
2023-04-21T09:58:28.710Z,38.33
2023-04-21T10:00:59.675Z,36.63
2023-04-21T10:03:30.376Z,37.81
2023-04-21T10:05:59.793Z,36.85
2023-04-21T10:08:29.265Z,35.33
2023-04-21T10:10:58.950Z,35.97
2023-04-21T10:13:30.021Z,35.67
2023-04-21T10:16:08.102Z,37.60
2023-04-21T10:18:39.465Z,35.77
2023-04-21T10:21:10.735Z,36.53
2023-04-21T10:23:43.505Z,34.53
2023-04-21T10:26:16.411Z,33.92
2023-04-21T10:28:57.645Z,36.08
2023-04-21T10:31:33.103Z,33.02
2023-04-21T10:34:19.513Z,34.81
2023-04-21T10:37:19.752Z,33.19
2023-04-21T10:39:56.053Z,33.40
2023-04-21T10:42:37.110Z,33.59
2023-04-21T10:45:14.301Z,33.96
2023-04-21T10:47:49.229Z,34.34
2023-04-21T10:50:27.000Z,32.02
2023-04-21T10:53:00.461Z,33.18
2023-04-21T10:55:31.362Z,30.71
2023-04-21T10:58:04.542Z,32.75
2023-04-21T11:00:35.047Z,31.55
2023-04-21T11:03:06.343Z,30.96
2023-04-21T11:05:41.012Z,31.33
2023-04-21T11:08:14.090Z,32.35
2023-04-21T11:10:55.784Z,31.52
2023-04-21T11:13:27.036Z,31.88
2023-04-21T11:16:03.748Z,31.71
2023-04-21T11:18:43.792Z,30.93
2023-04-21T11:21:21.553Z,30.48
2023-04-21T11:23:54.380Z,31.34
2023-04-21T11:26:34.862Z,31.49
2023-04-21T11:29:06.097Z,31.18
2023-04-21T11:31:37.609Z,32.45
2023-04-21T11:34:07.468Z,29.79
2023-04-21T11:36:36.660Z,30.72
2023-04-21T11:39:10.130Z,28.79
2023-04-21T11:41:42.207Z,28.62
2023-04-21T11:44:12.047Z,28.29
2023-04-21T11:46:46.969Z,28.44
2023-04-21T11:49:18.519Z,28.35
2023-04-21T11:51:47.604Z,27.59
2023-04-21T11:54:22.081Z,27.53
2023-04-21T11:56:51.141Z,27.98
2023-04-21T11:59:26.040Z,30.05
2023-04-21T12:01:57.210Z,28.31
2023-04-21T12:04:27.593Z,29.83
2023-04-21T12:07:01.555Z,29.38
2023-04-21T12:09:31.376Z,31.17
2023-04-21T12:12:02.706Z,30.93
2023-04-21T12:14:34.921Z,29.80
2023-04-21T12:17:08.326Z,31.58
2023-04-21T12:19:39.675Z,30.02
2023-04-21T12:22:10.333Z,29.82
2023-04-21T12:24:39.813Z,28.15
2023-04-21T12:27:09.415Z,28.15
2023-04-21T12:29:38.729Z,30.21
2023-04-21T12:32:10.308Z,28.10
2023-04-21T12:34:39.259Z,27.22
2023-04-21T12:37:09.075Z,27.66
2023-04-21T12:39:37.918Z,26.85
2023-04-21T12:42:06.953Z,29.02
2023-04-21T12:44:35.673Z,27.58
2023-04-21T12:47:04.546Z,26.76
2023-04-21T12:49:34.659Z,26.54
2023-04-21T12:52:05.712Z,28.34
2023-04-21T12:54:34.899Z,29.68
2023-04-21T12:57:04.346Z,29.58
2023-04-21T12:59:33.586Z,27.55
2023-04-21T13:02:02.458Z,26.88
2023-04-21T13:04:32.500Z,25.48
2023-04-21T13:07:02.957Z,23.60
2023-04-21T13:09:33.101Z,25.70
2023-04-21T13:12:04.824Z,23.20
2023-04-21T13:14:34.268Z,22.24
2023-04-21T13:17:03.552Z,23.64
2023-04-21T13:19:33.920Z,23.47
2023-04-21T13:22:05.598Z,24.68
2023-04-21T13:24:34.665Z,23.86
2023-04-21T13:27:03.586Z,22.45
2023-04-21T13:29:34.598Z,20.96
2023-04-21T13:32:04.876Z,21.69
2023-04-21T13:34:36.069Z,21.29
2023-04-21T13:37:22.121Z,21.62
2023-04-21T13:40:10.095Z,23.25
2023-04-21T13:42:40.336Z,24.56
2023-04-21T13:45:14.125Z,24.54
2023-04-21T13:47:43.517Z,24.39
2023-04-21T13:50:12.823Z,24.70
2023-04-21T13:52:43.919Z,22.13
2023-04-21T13:55:13.203Z,22.65
2023-04-21T13:57:42.767Z,25.04
2023-04-21T14:00:15.345Z,23.46
2023-04-21T14:02:47.346Z,22.25
2023-04-21T14:05:16.458Z,21.61
2023-04-21T14:07:47.135Z,19.84
2023-04-21T14:10:20.196Z,20.04
2023-04-21T14:12:53.232Z,19.26
2023-04-21T14:15:24.550Z,20.93
2023-04-21T14:17:56.632Z,19.48
2023-04-21T14:20:26.000Z,18.67
2023-04-21T14:22:57.039Z,17.48
2023-04-21T14:25:35.055Z,18.09
2023-04-21T14:28:07.586Z,18.13
2023-04-21T14:30:37.695Z,18.09
2023-04-21T14:33:08.147Z,16.60
2023-04-21T14:35:39.559Z,17.17
2023-04-21T14:38:10.068Z,17.49
2023-04-21T14:40:38.781Z,16.64
2023-04-21T14:43:07.596Z,17.13
2023-04-21T14:45:36.790Z,17.09
2023-04-21T14:48:06.065Z,18.73
2023-04-21T14:50:35.075Z,18.28
2023-04-21T14:53:04.219Z,18.96
2023-04-21T14:55:35.025Z,18.60
2023-04-21T14:58:04.783Z,19.75
2023-04-21T15:00:35.102Z,19.26
2023-04-21T15:03:04.747Z,18.93
2023-04-21T15:05:34.829Z,19.85
2023-04-21T15:08:05.067Z,19.93
2023-04-21T15:10:35.635Z,20.70
2023-04-21T15:13:05.806Z,21.03
2023-04-21T15:15:35.953Z,23.14
2023-04-21T15:18:05.665Z,22.01
2023-04-21T15:20:44.603Z,22.56
2023-04-21T15:23:15.685Z,21.44
2023-04-21T15:25:46.427Z,22.01
2023-04-21T15:28:15.312Z,23.99
2023-04-21T15:30:44.690Z,23.26
2023-04-21T15:33:13.518Z,23.42
2023-04-21T15:35:43.428Z,23.52
2023-04-21T15:38:12.262Z,23.66
2023-04-21T15:40:53.213Z,24.78
2023-04-21T15:43:33.215Z,25.87
2023-04-21T15:46:03.321Z,24.74
2023-04-21T15:48:32.576Z,24.94
2023-04-21T15:51:01.517Z,27.80
2023-04-21T15:53:31.107Z,27.47
2023-04-21T15:56:00.918Z,27.07
2023-04-21T15:58:31.719Z,26.32
2023-04-21T16:01:00.801Z,26.50
2023-04-21T16:03:31.307Z,27.38
2023-04-21T16:06:00.800Z,27.26
2023-04-21T16:08:30.545Z,28.16
2023-04-21T16:10:59.320Z,28.09
2023-04-21T16:13:28.080Z,27.56
2023-04-21T16:15:58.502Z,28.35
2023-04-21T16:18:28.136Z,27.77
2023-04-21T16:20:57.240Z,28.18
2023-04-21T16:23:26.147Z,28.48
2023-04-21T16:25:55.323Z,28.20
2023-04-21T16:28:24.399Z,26.96
2023-04-21T16:30:53.787Z,27.46
2023-04-21T16:33:24.147Z,27.86
2023-04-21T16:35:54.231Z,31.85
2023-04-21T16:38:24.842Z,28.53
2023-04-21T16:40:53.723Z,28.84
2023-04-21T16:43:22.627Z,29.39
2023-04-21T16:45:51.793Z,29.20
2023-04-21T16:48:20.819Z,30.00
2023-04-21T16:50:54.081Z,30.20
2023-04-21T16:53:25.529Z,32.13
2023-04-21T16:55:54.878Z,33.44
2023-04-21T16:58:24.636Z,33.47
2023-04-21T17:00:54.687Z,34.83
2023-04-21T17:03:23.912Z,34.81
2023-04-21T17:05:54.479Z,35.50
2023-04-21T17:08:24.419Z,34.61
2023-04-21T17:10:55.515Z,35.07
2023-04-21T17:13:24.381Z,35.29
2023-04-21T17:15:55.463Z,34.34
2023-04-21T17:18:24.268Z,34.42
2023-04-21T17:20:54.985Z,34.92
2023-04-21T17:23:23.998Z,34.94
2023-04-21T17:25:53.873Z,35.65
2023-04-21T17:28:24.028Z,35.09
2023-04-21T17:31:00.245Z,35.28
2023-04-21T17:33:36.271Z,35.36
2023-04-21T17:36:10.120Z,35.34
2023-04-21T17:38:43.165Z,35.74
2023-04-21T17:41:20.068Z,36.04
2023-04-21T17:43:49.144Z,36.93
2023-04-21T17:46:18.037Z,36.22
2023-04-21T17:48:47.486Z,36.81
2023-04-21T17:51:19.421Z,37.99
2023-04-21T17:53:50.772Z,38.35
2023-04-21T17:56:25.645Z,37.71
2023-04-21T17:58:56.291Z,38.10
2023-04-21T18:01:25.578Z,40.10
2023-04-21T18:04:49.725Z,43.99
2023-04-21T18:07:28.392Z,42.09
2023-04-21T18:09:59.040Z,42.29
2023-04-21T18:12:28.549Z,43.11
2023-04-21T18:14:57.309Z,44.08
2023-04-21T18:17:27.583Z,42.98
2023-04-21T18:19:56.584Z,44.26
2023-04-21T18:22:28.045Z,43.48
2023-04-21T18:25:00.990Z,44.81
2023-04-21T18:27:34.898Z,45.65
2023-04-21T18:30:22.422Z,47.09
2023-04-21T18:32:53.274Z,47.43
2023-04-21T18:35:23.741Z,48.34
2023-04-21T18:37:55.538Z,47.69
2023-04-21T18:40:28.339Z,48.91
2023-04-21T18:43:27.002Z,47.92
2023-04-21T18:45:58.194Z,48.27
2023-04-21T18:48:29.838Z,49.21
2023-04-21T18:51:00.155Z,49.52
2023-04-21T18:53:33.722Z,49.13
2023-04-21T18:56:03.478Z,49.48
2023-04-21T18:58:32.432Z,51.13
2023-04-21T19:01:27.489Z,52.07
2023-04-21T19:03:56.984Z,51.79
2023-04-21T19:06:26.182Z,51.77
2023-04-21T19:08:58.749Z,51.90
2023-04-21T19:11:29.922Z,52.50
2023-04-21T19:14:00.741Z,52.33
2023-04-21T19:16:31.114Z,51.46
2023-04-21T19:19:02.380Z,52.76
2023-04-21T19:21:31.208Z,52.67
2023-04-21T19:24:01.348Z,53.86
2023-04-21T19:26:30.230Z,53.58
2023-04-21T19:28:58.963Z,53.25
2023-04-21T19:31:27.830Z,52.31
2023-04-21T19:33:56.562Z,54.00
2023-04-21T19:36:26.277Z,55.31
2023-04-21T19:38:56.608Z,55.76
2023-04-21T19:41:26.908Z,55.04
2023-04-21T19:43:55.711Z,54.83
2023-04-21T19:46:24.879Z,55.52
2023-04-21T19:48:53.787Z,54.98
2023-04-21T19:51:23.834Z,54.84
2023-04-21T19:54:10.043Z,54.81
2023-04-21T19:56:41.724Z,55.40
2023-04-21T19:59:10.447Z,56.85
2023-04-21T20:01:39.683Z,56.59
2023-04-21T20:04:11.033Z,55.70
2023-04-21T20:06:41.634Z,56.04
2023-04-21T20:09:14.775Z,55.82
2023-04-21T20:11:45.219Z,55.48
2023-04-21T20:14:15.284Z,55.38
2023-04-21T20:16:46.189Z,56.05
2023-04-21T20:19:17.448Z,55.89
2023-04-21T20:21:49.099Z,55.62
2023-04-21T20:24:18.027Z,55.63
2023-04-21T20:26:48.254Z,56.27
2023-04-21T20:29:17.331Z,57.05
2023-04-21T20:31:46.462Z,57.80
2023-04-21T20:34:15.193Z,58.70
2023-04-21T20:36:44.866Z,58.96
2023-04-21T20:39:14.436Z,58.55
2023-04-21T20:41:45.764Z,60.14
2023-04-21T20:44:16.910Z,58.94
2023-04-21T20:46:46.099Z,60.16
2023-04-21T20:49:15.178Z,60.27
2023-04-21T20:51:43.812Z,60.41
2023-04-21T20:54:12.519Z,59.22
2023-04-21T20:56:41.310Z,59.81
2023-04-21T20:59:10.102Z,59.26
2023-04-21T21:01:41.421Z,59.53
2023-04-21T21:04:10.250Z,58.89
2023-04-21T21:06:39.572Z,58.93
2023-04-21T21:09:09.021Z,59.27
2023-04-21T21:11:37.826Z,60.29
2023-04-21T21:14:06.540Z,59.33
2023-04-21T21:16:35.372Z,59.83
2023-04-21T21:19:05.579Z,61.20
2023-04-21T21:21:34.322Z,62.01
2023-04-21T21:24:03.071Z,63.38
2023-04-21T21:26:31.832Z,64.04
2023-04-21T21:29:00.536Z,64.40
2023-04-21T21:31:29.640Z,63.51
2023-04-21T21:33:59.008Z,64.31
2023-04-21T21:36:29.327Z,65.35
2023-04-21T21:38:58.017Z,64.45
2023-04-21T21:41:26.784Z,64.73
2023-04-21T21:43:55.477Z,64.23
2023-04-21T21:46:24.431Z,62.72
2023-04-21T21:48:53.247Z,62.93
2023-04-21T21:51:22.044Z,63.80
2023-04-21T21:53:52.172Z,64.47
2023-04-21T21:56:21.468Z,65.52
2023-04-21T21:58:50.239Z,65.07
2023-04-21T22:01:19.270Z,66.04
2023-04-21T22:03:48.411Z,65.80
2023-04-21T22:06:18.813Z,64.37
2023-04-21T22:08:47.642Z,64.18
2023-04-21T22:11:17.923Z,63.29
2023-04-21T22:13:46.800Z,63.47
2023-04-21T22:16:16.616Z,63.33
2023-04-21T22:18:47.261Z,64.85
2023-04-21T22:21:16.156Z,65.83
2023-04-21T22:23:45.116Z,65.54
2023-04-21T22:26:13.910Z,64.76
2023-04-21T22:28:44.050Z,64.79
2023-04-21T22:31:12.915Z,64.54
2023-04-21T22:33:41.707Z,65.01
2023-04-21T22:36:12.571Z,64.47
2023-04-21T22:38:43.623Z,63.86
2023-04-21T22:41:12.499Z,64.72
2023-04-21T22:43:41.314Z,66.17
2023-04-21T22:46:11.793Z,65.32
2023-04-21T22:48:40.590Z,65.43
2023-04-21T22:51:09.330Z,64.86
2023-04-21T22:53:38.021Z,64.06
2023-04-21T22:56:07.610Z,64.31
2023-04-21T22:58:36.368Z,63.75
2023-04-21T23:01:05.176Z,63.99
2023-04-21T23:03:35.697Z,64.51
2023-04-21T23:06:04.714Z,65.05
2023-04-21T23:08:33.479Z,65.91
2023-04-21T23:11:04.211Z,66.47
2023-04-21T23:13:33.767Z,66.98
2023-04-21T23:16:02.673Z,66.35
2023-04-21T23:18:31.439Z,66.89
2023-04-21T23:21:01.724Z,67.50
2023-04-21T23:23:30.579Z,68.11
2023-04-21T23:25:59.369Z,67.09
2023-04-21T23:28:28.253Z,67.12
2023-04-21T23:30:57.064Z,67.05
2023-04-21T23:33:26.091Z,68.35
2023-04-21T23:35:56.229Z,67.64
2023-04-21T23:38:27.033Z,66.71
2023-04-21T23:40:55.799Z,66.44
2023-04-21T23:43:24.622Z,65.86
2023-04-21T23:45:53.646Z,67.38
2023-04-21T23:48:22.481Z,67.14
2023-04-21T23:50:51.269Z,66.94
2023-04-21T23:53:26.059Z,67.15
2023-04-21T23:55:55.066Z,66.59
2023-04-21T23:58:23.791Z,66.21
